Latest Weather Observations for Cessnock Airport

IDN60801

Issued at 8:32 am EST Friday 21 July 2017 (issued every 30 minutes, with the page automatically refreshed every 10 minutes)

About weather observations | Map of weather stations | Latest weather observations for NSW | Other Formats
Station Details ID: 061260 Name: CESSNOCK AIRPORT AWS Lat: -32.79 Lon: 151.34 Height: 61.0 m
Data from the previous 72 hours. | See also: Recent months at Cessnock Airport
Date/Time
EST
Temp
°C
App
Temp
°C
Dew
Point
°C
Rel
Hum
%
Delta-T
°C
Wind Press
QNH
hPa
Press
MSL
hPa
Rain since
9am
mm
Dir  Spd
km/h
Gust
km/h
Spd
kts
Gust
kts
21/08:30am 9.5 6.2 2.6 62 2.9 NNE 9 11 5 6 1020.4 1020.5 0.0
21/08:00am 6.3 3.0 2.6 77 1.5 NE 9 11 5 6 1020.1 1020.2 0.0
21/07:30am 3.6 -0.4 0.7 81 1.1 NNE 11 15 6 8 1019.9 1020.0 0.0
21/07:00am 2.6 -1.4 0.7 87 0.7 NNE 11 13 6 7 1019.5 1019.6 0.0
21/06:30am 0.7 -2.7 -1.8 83 0.9 WSW 6 9 3 5 1019.2 1019.3 0.0
21/06:00am 2.4 0.1 0.1 85 0.9 SSW 2 7 1 4 1018.8 1018.9 0.0
21/05:30am 1.9 -1.0 -0.8 82 1.0 WNW 4 9 2 5 1018.1 1018.2 0.0
21/05:00am 2.8 -0.5 0.2 83 1.0 N 7 13 4 7 1017.8 1017.9 0.0
21/04:30am 2.3 -0.8 0.0 85 0.8 N 6 9 3 5 1017.6 1017.7 0.0
21/04:00am 1.6 -1.7 -1.0 83 0.9 N 6 9 3 5 1017.5 1017.6 0.0
21/03:30am 2.8 -0.5 0.0 82 1.0 E 7 9 4 5 1017.4 1017.5 0.0
21/03:00am 3.2 1.2 -0.4 77 1.3 CALM 0 0 0 0 1017.3 1017.4 0.0
21/02:30am 4.5 0.8 -0.3 71 1.8 NNE 9 13 5 7 1017.2 1017.3 0.0
21/02:00am 8.0 3.9 -0.2 56 3.2 W 11 19 6 10 1017.0 1017.1 0.0
21/01:30am 6.5 2.4 0.0 63 2.5 NW 11 15 6 8 1017.1 1017.2 0.0
21/01:00am 6.8 3.1 0.0 62 2.6 NNW 9 11 5 6 1017.0 1017.1 0.0
21/12:30am 5.2 1.1 -0.2 68 2.1 NE 11 13 6 7 1017.0 1017.1 0.0
21/12:00am 6.0 2.6 -0.3 64 2.4 NE 7 11 4 6 1017.0 1017.1 0.0
 
Date/Time
EST
Temp
°C
App
Temp
°C
Dew
Point
°C
Rel
Hum
%
Delta-T
°C
Wind Press
QNH
hPa
Press
MSL
hPa
Rain since
9am
mm
Dir  Spd
km/h
Gust
km/h
Spd
kts
Gust
kts
20/11:30pm 8.5 4.8 0.0 55 3.4 N 9 13 5 7 1017.0 1017.1 0.0
20/11:00pm 9.7 6.0 0.1 51 3.9 WNW 9 13 5 7 1016.7 1016.8 0.0
20/10:30pm 7.6 4.2 -0.4 57 3.1 NNE 7 11 4 6 1016.6 1016.7 0.0
20/10:00pm 9.1 5.9 -0.8 50 3.9 NW 6 13 3 7 1016.2 1016.3 0.0
20/09:30pm 10.6 6.0 -0.8 45 4.5 WNW 13 19 7 10 1016.0 1016.1 0.0
20/09:00pm 10.9 6.3 -0.9 44 4.7 W 13 22 7 12 1015.9 1016.0 0.0
20/08:30pm 11.4 6.5 -0.7 43 4.9 WNW 15 22 8 12 1016.1 1016.2 0.0
20/08:00pm 11.9 6.9 -0.9 41 5.1 W 15 28 8 15 1016.0 1016.1 0.0
20/07:30pm 11.7 6.7 -1.1 41 5.1 W 15 24 8 13 1015.4 1015.5 0.0
20/07:00pm 12.5 7.0 -2.1 36 5.7 W 17 30 9 16 1014.9 1015.0 0.0
20/06:30pm 12.8 7.2 -2.6 34 6.0 WSW 17 32 9 17 1014.6 1014.7 0.0
20/06:00pm 12.9 7.2 -3.4 32 6.3 WSW 17 32 9 17 1013.9 1014.0 0.0
20/05:30pm 12.9 7.2 -3.4 32 6.3 WSW 17 26 9 14 1013.0 1013.1 0.0
20/05:00pm 14.0 8.7 -3.7 29 6.8 WSW 15 24 8 13 1012.6 1012.7 0.0
20/04:30pm 15.5 9.7 -5.0 24 7.8 WSW 17 24 9 13 1012.2 1012.3 0.0
20/04:00pm 16.9 10.5 -6.8 19 8.8 W 19 32 10 17 1011.9 1011.9 0.0
20/03:30pm 18.1 10.8 -5.9 19 9.2 W 24 41 13 22 1011.5 1011.5 0.0
20/03:00pm 18.3 11.5 -5.0 20 9.2 W 22 39 12 21 1011.6 1011.6 0.0
20/02:30pm 18.3 12.1 -5.0 20 9.2 W 19 39 10 21 1011.5 1011.5 0.0
20/02:00pm 18.4 11.7 -4.3 21 9.1 W 22 33 12 18 1011.6 1011.6 0.0
20/01:30pm 18.5 12.1 -4.9 20 9.2 WNW 20 32 11 17 1011.7 1011.7 0.0
20/01:10pm 18.3 10.0 -5.0 20 9.2 WNW 30 48 16 26 1011.7 1011.7 0.0
20/01:00pm 18.2 11.0 -5.1 20 9.1 W 24 41 13 22 1011.7 1011.7 0.0
20/12:30pm 17.7 12.4 2.1 35 7.1 NW 19 30 10 16 1012.2 1012.3 0.0
20/12:00pm 16.3 10.8 1.6 37 6.5 NW 20 35 11 19 1012.7 1012.8 0.0
20/11:30am 15.9 10.6 2.0 39 6.2 NW 19 28 10 15 1013.4 1013.5 0.0
20/11:00am 15.6 10.3 2.1 40 6.0 NW 19 30 10 16 1014.1 1014.2 0.0
20/10:30am 14.5 9.1 2.7 45 5.3 NW 20 32 11 17 1014.3 1014.4 0.0
20/10:00am 13.7 8.5 3.5 50 4.6 NW 20 32 11 17 1014.6 1014.7 0.0
20/09:30am 12.6 7.4 3.6 54 4.0 WNW 20 33 11 18 1014.6 1014.7 0.0
20/09:00am 11.7 6.0 4.7 62 3.2 WNW 24 37 13 20 1014.5 1014.6 0.0
20/08:30am 10.9 5.9 4.8 66 2.8 WNW 20 32 11 17 1014.3 1014.4 0.0
20/08:00am 10.3 5.4 5.1 70 2.4 WNW 20 41 11 22 1013.9 1014.0 0.0
20/07:30am 8.3 5.4 4.5 77 1.7 N 9 13 5 7 1013.6 1013.7 0.0
20/07:00am 8.8 5.5 4.4 74 1.9 NNW 11 17 6 9 1013.8 1013.9 0.0
20/06:30am 9.1 5.8 4.3 72 2.1 NW 11 19 6 10 1013.6 1013.7 0.0
20/06:00am 9.5 5.2 5.3 75 1.9 NW 17 26 9 14 1013.6 1013.7 0.0
20/05:30am 9.2 4.4 5.6 78 1.6 NNW 20 26 11 14 1013.3 1013.4 0.0
20/05:00am 6.4 3.1 4.7 89 0.7 N 11 15 6 8 1013.1 1013.2 0.0
20/04:30am 6.3 3.0 4.6 89 0.7 NNE 11 13 6 7 1012.9 1013.0 0.0
20/04:00am 7.1 3.8 4.8 85 1.0 N 11 15 6 8 1012.9 1013.0 0.0
20/03:30am 6.8 3.7 3.8 81 1.3 NE 9 13 5 7 1012.8 1012.9 0.0
20/03:00am 9.6 5.6 4.8 72 2.2 NNW 15 22 8 12 1012.6 1012.7 0.0
20/02:30am 9.9 5.6 5.1 72 2.2 NW 17 24 9 13 1012.5 1012.6 0.0
20/02:00am 9.8 5.1 5.0 72 2.2 NW 19 26 10 14 1012.2 1012.3 0.0
20/01:30am 10.2 4.9 5.0 70 2.4 NW 22 33 12 18 1011.8 1011.8 0.0
20/01:00am 10.2 5.2 4.8 69 2.4 NW 20 30 11 16 1011.5 1011.5 0.0
20/12:30am 10.4 5.5 5.0 69 2.5 NW 20 32 11 17 1012.0 1012.1 0.0
20/12:00am 10.1 5.3 4.7 69 2.4 NW 19 24 10 13 1012.1 1012.2 0.0
 
Date/Time
EST
Temp
°C
App
Temp
°C
Dew
Point
°C
Rel
Hum
%
Delta-T
°C
Wind Press
QNH
hPa
Press
MSL
hPa
Rain since
9am
mm
Dir  Spd
km/h
Gust
km/h
Spd
kts
Gust
kts
19/11:30pm 10.2 5.2 4.8 69 2.4 NW 20 28 11 15 1012.4 1012.5 0.0
19/11:00pm 10.2 5.7 4.4 67 2.6 NNW 17 26 9 14 1012.5 1012.6 0.0
19/10:30pm 10.2 5.6 3.9 65 2.8 NNW 17 24 9 13 1012.6 1012.7 0.0
19/10:00pm 10.2 6.4 3.9 65 2.8 NNW 13 20 7 11 1012.5 1012.6 0.0
19/09:30pm 10.6 5.9 3.4 61 3.2 NNW 17 26 9 14 1012.2 1012.3 0.0
19/09:00pm 10.6 6.3 3.2 60 3.2 N 15 20 8 11 1011.9 1011.9 0.0
19/08:30pm 11.0 6.7 3.1 58 3.5 N 15 17 8 9 1011.9 1011.9 0.0
19/08:00pm 11.9 8.2 2.6 53 4.1 NW 11 20 6 11 1011.5 1011.5 0.0
19/07:30pm 12.3 8.3 2.7 52 4.2 WNW 13 22 7 12 1011.2 1011.2 0.0
19/07:00pm 12.7 8.3 2.6 50 4.4 WNW 15 30 8 16 1010.7 1010.7 0.0
19/06:30pm 12.9 8.5 2.5 49 4.6 WNW 15 20 8 11 1010.2 1010.2 0.0
19/06:00pm 13.2 9.1 2.1 47 4.8 WNW 13 20 7 11 1009.9 1009.9 0.0
19/05:30pm 14.0 8.7 2.0 44 5.3 W 19 30 10 16 1009.3 1009.3 0.0
19/05:00pm 14.6 10.0 1.8 42 5.6 W 15 26 8 14 1008.6 1008.6 0.0
19/04:30pm 15.6 9.7 1.4 38 6.2 W 22 35 12 19 1007.9 1007.9 0.0
19/04:00pm 16.3 10.7 1.2 36 6.7 W 20 32 11 17 1007.4 1007.4 0.0
19/03:30pm 16.7 11.2 1.6 36 6.7 W 20 30 11 16 1006.9 1006.9 0.0
19/03:00pm 15.8 10.1 0.8 36 6.5 W 20 33 11 18 1006.5 1006.5 0.0
19/02:30pm 17.1 10.5 1.9 36 6.8 WNW 26 48 14 26 1006.1 1006.1 0.0
19/02:00pm 16.7 11.9 2.7 39 6.4 W 17 30 9 16 1006.2 1006.2 0.0
19/01:30pm 15.7 9.6 2.8 42 5.8 W 24 43 13 23 1006.2 1006.2 0.0
19/01:00pm 15.2 9.9 3.0 44 5.5 WNW 20 32 11 17 1006.5 1006.5 0.0
19/12:30pm 16.2 10.6 3.6 43 5.8 WNW 22 37 12 20 1006.9 1006.9 0.0
19/12:16pm 15.2 8.3 2.4 42 5.7 WNW 28 46 15 25 1007.0 1007.0 0.0
19/12:00pm 14.7 9.0 2.9 45 5.3 WNW 22 35 12 19 1007.2 1007.2 0.0
19/11:30am 14.7 9.3 4.4 50 4.8 NW 22 43 12 23 1007.9 1007.9 0.0
19/11:00am 14.5 8.8 3.0 46 5.2 NW 22 35 12 19 1008.3 1008.3 0.0
19/10:30am 13.5 7.8 2.7 48 4.8 NW 22 35 12 19 1008.8 1008.8 0.0
19/10:00am 13.0 7.3 2.8 50 4.5 NW 22 37 12 20 1008.7 1008.7 0.0
19/09:30am 11.3 6.5 2.6 55 3.8 NW 17 24 9 13 1009.0 1009.0 0.0
19/09:00am 10.9 6.1 2.5 56 3.6 NW 17 28 9 15 1009.2 1009.2 0.0
19/08:30am 10.7 6.2 2.0 55 3.7 WNW 15 22 8 12 1009.3 1009.3 0.0
19/08:00am 10.7 5.8 2.0 55 3.7 NW 17 24 9 13 1008.9 1008.9 0.0
19/07:30am 9.7 5.1 1.4 56 3.4 NW 15 26 8 14 1008.7 1008.7 0.0
19/07:00am 8.6 3.9 0.8 58 3.2 NW 15 24 8 13 1008.4 1008.4 0.0
19/06:30am 8.7 4.0 0.9 58 3.2 NW 15 20 8 11 1008.6 1008.6 0.0
19/06:00am 9.5 4.0 0.9 55 3.5 NNW 19 28 10 15 1008.3 1008.3 0.0
19/05:30am 9.7 5.0 0.9 54 3.6 NW 15 24 8 13 1008.2 1008.2 0.0
19/05:00am 9.9 4.8 1.0 54 3.7 NW 17 26 9 14 1007.7 1007.7 0.0
19/04:30am 10.0 5.3 1.1 54 3.7 NW 15 20 8 11 1007.8 1007.8 0.0
19/04:00am 9.7 5.8 1.4 56 3.5 NW 11 19 6 10 1008.0 1008.0 0.0
19/03:30am 10.5 5.5 1.6 54 3.7 NW 17 24 9 13 1007.9 1007.9 0.0
19/03:00am 10.7 5.8 1.8 54 3.8 NW 17 24 9 13 1008.1 1008.1 0.0
19/02:30am 10.7 6.6 2.0 55 3.7 NNW 13 19 7 10 1008.5 1008.5 0.0
19/02:00am 11.4 7.2 1.4 50 4.2 NNW 13 17 7 9 1008.4 1008.4 0.0
19/01:30am 13.2 8.7 -0.4 39 5.6 WNW 13 24 7 13 1008.6 1008.6 0.0
19/01:00am 11.7 8.4 2.5 53 4.0 NNW 9 13 5 7 1008.9 1008.9 0.0
19/12:30am 12.7 8.7 2.6 50 4.4 NW 13 19 7 10 1009.1 1009.1 0.0
19/12:00am 13.3 9.2 2.5 48 4.8 NW 13 19 7 10 1009.2 1009.2 0.0
 
Date/Time
EST
Temp
°C
App
Temp
°C
Dew
Point
°C
Rel
Hum
%
Delta-T
°C
Wind Press
QNH
hPa
Press
MSL
hPa
Rain since
9am
mm
Dir  Spd
km/h
Gust
km/h
Spd
kts
Gust
kts
18/11:30pm 12.7 9.0 2.6 50 4.4 NW 11 15 6 8 1009.3 1009.3 0.0
18/11:00pm 13.4 10.1 2.3 47 4.9 NNW 9 13 5 7 1009.2 1009.2 0.0
18/10:30pm 14.6 11.5 1.2 40 5.8 WNW 7 17 4 9 1009.2 1009.2 0.0
18/10:00pm 17.0 12.0 1.4 35 6.9 WNW 17 30 9 16 1009.0 1009.0 0.0
18/09:30pm 17.3 12.3 1.3 34 7.1 W 17 28 9 15 1008.9 1008.9 0.0
18/09:00pm 17.9 12.5 1.4 33 7.4 W 19 35 10 19 1008.7 1008.7 0.0
18/08:30pm 18.2 12.7 1.7 33 7.4 W 20 39 11 21 1008.8 1008.8 0.0
18/08:00pm 18.8 12.5 1.3 31 7.9 W 24 37 13 20 1008.8 1008.8 0.0
18/07:30pm 19.1 13.2 2.0 32 7.8 WNW 22 44 12 24 1008.6 1008.6 0.0
18/07:00pm 14.5 12.2 7.3 62 3.6 NW 9 13 5 7 1008.5 1008.5 0.0
18/06:30pm 16.6 14.5 8.1 57 4.3 NW 9 13 5 7 1008.1 1008.1 0.0
18/06:00pm 17.8 15.7 8.1 53 5.0 NW 9 15 5 8 1008.0 1008.0 0.0
18/05:30pm 18.8 15.8 7.9 49 5.6 NW 13 22 7 12 1007.8 1007.8 0.0
18/05:00pm 19.7 15.3 7.4 45 6.3 NW 20 32 11 17 1007.6 1007.6 0.0
18/04:30pm 20.3 15.9 6.6 41 6.9 NW 19 28 10 15 1007.5 1007.5 0.0
18/04:00pm 21.4 17.0 6.5 38 7.6 NW 19 33 10 18 1007.7 1007.7 0.0
18/03:30pm 22.6 18.2 7.2 37 8.0 NNW 20 35 11 19 1007.6 1007.6 0.0
18/03:00pm 22.8 16.7 6.6 35 8.3 NNW 28 46 15 25 1007.7 1007.7 0.0
18/02:30pm 23.1 16.6 6.4 34 8.6 NW 30 48 16 26 1008.0 1008.0 0.0
18/02:00pm 23.3 16.8 6.6 34 8.6 NW 30 54 16 29 1008.3 1008.3 0.0
18/01:57pm 22.9 16.2 5.8 33 8.7 NNW 30 54 16 29 1008.2 1008.2 0.0
18/01:30pm 23.0 17.5 7.5 37 8.1 NW 26 44 14 24 1008.8 1008.8 0.0
18/01:00pm 22.2 16.4 8.0 40 7.5 NW 28 43 15 23 1009.5 1009.5 0.0
18/12:30pm 21.6 17.3 9.2 45 6.6 NNW 22 39 12 21 1010.4 1010.4 0.0
18/12:00pm 20.9 17.5 10.4 51 5.7 NW 19 32 10 17 1011.3 1011.3 0.0
18/11:30am 19.8 15.9 9.4 51 5.5 NW 20 39 11 21 1012.1 1012.2 0.0
18/11:00am 19.6 17.2 11.4 59 4.5 NNW 15 26 8 14 1013.1 1013.2 0.0
18/10:30am 17.9 15.5 10.0 60 4.2 NW 13 20 7 11 1014.0 1014.1 0.0
18/10:00am 15.0 13.3 9.8 71 2.7 NE 9 13 5 7 1014.5 1014.6 0.0
18/09:30am 13.5 11.6 9.0 74 2.3 NNE 9 13 5 7 1014.8 1014.9 0.0
18/09:00am 11.6 9.2 8.6 82 1.5 NNE 11 13 6 7 1015.0 1015.1 0.0

Other Formats:

Comma delimited format used in spreadsheet applications
http://www.bom.gov.au/fwo/IDN60801/IDN60801.95771.axf

JavaScript Object Notation format (JSON) in row-major order
http://www.bom.gov.au/fwo/IDN60801/IDN60801.95771.json